Wetterdaten: Woche 06.06.05 - 12.06.05 (KW23)
Datum Zeit Temperatur Luftfeuchte Luftdruck Niederschlag Windrichtung Wind
06.06.2005 00:00 12,9 C 70 % 1020 hPa 0,0 l/m N 0,0 km/h (0 Bft)
06.06.2005 01:00 12,1 C 77 % 1020 hPa 0,0 l/m N 0,2 km/h (0 Bft)
06.06.2005 02:00 11,5 C 84 % 1019 hPa 0,0 l/m N 0,0 km/h (0 Bft)
06.06.2005 03:00 11,0 C 86 % 1019 hPa 0,0 l/m N 0,0 km/h (0 Bft)
06.06.2005 04:00 10,7 C 87 % 1019 hPa 0,0 l/m N 0,0 km/h (0 Bft)
06.06.2005 05:00 10,7 C 90 % 1019 hPa 0,0 l/m N 0,0 km/h (0 Bft)
06.06.2005 06:00 10,9 C 92 % 1019 hPa 0,0 l/m N 0,0 km/h (0 Bft)
06.06.2005 07:00 11,3 C 86 % 1019 hPa 0,0 l/m W-SW 4,6 km/h (1 Bft)
06.06.2005 08:00 12,0 C 78 % 1020 hPa 0,0 l/m SW 4,8 km/h (1 Bft)
06.06.2005 09:00 13,0 C 72 % 1020 hPa 0,0 l/m W 9,7 km/h (2 Bft)
06.06.2005 10:00 14,4 C 64 % 1020 hPa 0,0 l/m W-SW 11,8 km/h (2 Bft)
06.06.2005 11:00 14,1 C 66 % 1020 hPa 0,0 l/m W-SW 13,3 km/h (3 Bft)
06.06.2005 12:00 14,5 C 69 % 1020 hPa 0,0 l/m S 15,0 km/h (3 Bft)
06.06.2005 13:00 15,8 C 56 % 1020 hPa 0,0 l/m W-SW 11,4 km/h (2 Bft)
06.06.2005 14:00 15,7 C 57 % 1020 hPa 0,0 l/m W-SW 11,1 km/h (2 Bft)
06.06.2005 15:00 17,0 C 55 % 1020 hPa 0,0 l/m SW 14,9 km/h (3 Bft)
06.06.2005 16:00 17,1 C 56 % 1020 hPa 0,0 l/m W 14,4 km/h (3 Bft)
06.06.2005 17:00 16,0 C 64 % 1020 hPa 0,0 l/m N-NW 10,6 km/h (2 Bft)
06.06.2005 18:00 14,4 C 78 % 1020 hPa 0,0 l/m N-NW 0,8 km/h (0 Bft)
06.06.2005 19:00 14,3 C 79 % 1020 hPa 1,0 l/m W-SW 1,2 km/h (1 Bft)
06.06.2005 20:00 13,4 C 87 % 1020 hPa 0,0 l/m W 5,4 km/h (1 Bft)
06.06.2005 21:00 12,7 C 92 % 1021 hPa 0,0 l/m N 0,0 km/h (0 Bft)
06.06.2005 22:00 12,5 C 94 % 1021 hPa 1,0 l/m N 0,0 km/h (0 Bft)
06.06.2005 23:00 12,4 C 96 % 1021 hPa 0,0 l/m N 1,8 km/h (1 Bft)
07.06.2005 00:00 12,1 C 96 % 1021 hPa 0,0 l/m N-NO 0,1 km/h (0 Bft)
07.06.2005 01:00 11,8 C 97 % 1022 hPa 0,0 l/m W 1,2 km/h (1 Bft)
07.06.2005 02:00 11,4 C 96 % 1022 hPa 0,0 l/m NW 10,8 km/h (2 Bft)
07.06.2005 03:00 10,4 C 94 % 1022 hPa 0,0 l/m N-NW 13,5 km/h (3 Bft)
07.06.2005 04:00 9,8 C 95 % 1023 hPa 0,0 l/m NW 14,4 km/h (3 Bft)
07.06.2005 05:00 8,7 C 91 % 1023 hPa 0,0 l/m NW 12,4 km/h (3 Bft)
07.06.2005 06:00 8,0 C 93 % 1024 hPa 0,0 l/m NW 11,9 km/h (2 Bft)
07.06.2005 07:00 8,7 C 90 % 1025 hPa 0,0 l/m N-NW 12,8 km/h (3 Bft)
07.06.2005 08:00 9,4 C 80 % 1026 hPa 0,0 l/m N-NW 12,0 km/h (2 Bft)
07.06.2005 09:00 9,5 C 71 % 1027 hPa 0,0 l/m N-NW 14,5 km/h (3 Bft)
07.06.2005 10:00 10,4 C 60 % 1027 hPa 0,0 l/m N-NW 13,6 km/h (3 Bft)
07.06.2005 11:00 11,6 C 53 % 1028 hPa 0,0 l/m NW 13,7 km/h (3 Bft)
07.06.2005 12:00 12,2 C 49 % 1028 hPa 0,0 l/m N-NW 15,4 km/h (3 Bft)
07.06.2005 13:00 12,2 C 48 % 1028 hPa 0,0 l/m N 15,5 km/h (3 Bft)
07.06.2005 14:00 12,4 C 45 % 1028 hPa 0,0 l/m N 17,2 km/h (3 Bft)
07.06.2005 15:00 13,5 C 41 % 1028 hPa 0,0 l/m NW 19,9 km/h (4 Bft)
07.06.2005 16:00 13,6 C 40 % 1029 hPa 0,0 l/m N 20,0 km/h (4 Bft)
07.06.2005 17:00 12,9 C 40 % 1029 hPa 0,0 l/m N 21,3 km/h (4 Bft)
07.06.2005 18:00 11,7 C 40 % 1030 hPa 0,0 l/m N 20,3 km/h (4 Bft)
07.06.2005 19:00 11,4 C 42 % 1030 hPa 0,0 l/m N-NW 13,5 km/h (3 Bft)
07.06.2005 20:00 10,1 C 48 % 1030 hPa 0,0 l/m N-NW 7,4 km/h (2 Bft)
07.06.2005 21:00 8,0 C 60 % 1031 hPa 0,0 l/m W 1,9 km/h (1 Bft)
07.06.2005 22:00 6,1 C 70 % 1032 hPa 0,0 l/m W 1,6 km/h (1 Bft)
07.06.2005 23:00 5,0 C 74 % 1032 hPa 0,0 l/m N 0,0 km/h (0 Bft)
08.06.2005 00:00 4,2 C 79 % 1032 hPa 0,0 l/m N 0,0 km/h (0 Bft)
08.06.2005 01:00 3,9 C 82 % 1032 hPa 0,0 l/m N 0,0 km/h (0 Bft)
08.06.2005 02:00 4,2 C 87 % 1032 hPa 0,0 l/m N 0,0 km/h (0 Bft)
08.06.2005 03:00 3,7 C 88 % 1031 hPa 0,0 l/m N 0,0 km/h (0 Bft)
08.06.2005 04:00 3,3 C 89 % 1031 hPa 0,0 l/m W 1,7 km/h (1 Bft)
08.06.2005 05:00 2,9 C 90 % 1031 hPa 0,0 l/m N 0,0 km/h (0 Bft)
08.06.2005 06:00 3,3 C 91 % 1031 hPa 0,0 l/m N 0,0 km/h (0 Bft)
08.06.2005 07:00 5,1 C 88 % 1032 hPa 0,0 l/m NW 4,1 km/h (1 Bft)
08.06.2005 08:00 8,0 C 75 % 1032 hPa 0,0 l/m NO 11,1 km/h (2 Bft)
08.06.2005 09:00 10,1 C 65 % 1032 hPa 0,0 l/m N 11,6 km/h (2 Bft)
08.06.2005 10:00 12,4 C 51 % 1032 hPa 0,0 l/m O-NO 13,8 km/h (3 Bft)
08.06.2005 11:00 14,0 C 43 % 1032 hPa 0,0 l/m O-NO 15,5 km/h (3 Bft)
08.06.2005 12:00 13,6 C 42 % 1032 hPa 0,0 l/m NO 14,8 km/h (3 Bft)
08.06.2005 13:00 14,5 C 39 % 1031 hPa 0,0 l/m N-NO 15,9 km/h (3 Bft)
08.06.2005 14:00 14,5 C 39 % 1031 hPa 0,0 l/m N-NO 14,5 km/h (3 Bft)
08.06.2005 15:00 15,5 C 37 % 1031 hPa 0,0 l/m NO 16,6 km/h (3 Bft)
08.06.2005 16:00 14,7 C 38 % 1031 hPa 0,0 l/m N 13,4 km/h (3 Bft)
08.06.2005 17:00 15,0 C 38 % 1031 hPa 0,0 l/m N 12,1 km/h (2 Bft)
08.06.2005 18:00 13,9 C 40 % 1030 hPa 0,0 l/m N 12,9 km/h (3 Bft)
08.06.2005 19:00 13,3 C 43 % 1031 hPa 0,0 l/m NO 9,8 km/h (2 Bft)
08.06.2005 20:00 12,4 C 47 % 1030 hPa 0,0 l/m NO 4,1 km/h (1 Bft)
08.06.2005 21:00 11,3 C 53 % 1030 hPa 0,0 l/m N-NO 0,4 km/h (0 Bft)
08.06.2005 22:00 10,3 C 60 % 1031 hPa 0,0 l/m N-NO 1,2 km/h (1 Bft)
08.06.2005 23:00 10,1 C 63 % 1030 hPa 0,0 l/m N-NO 0,4 km/h (0 Bft)
09.06.2005 00:00 9,3 C 67 % 1030 hPa 0,0 l/m N 0,0 km/h (0 Bft)
09.06.2005 01:00 7,9 C 71 % 1030 hPa 0,0 l/m NW 4,4 km/h (1 Bft)
09.06.2005 02:00 6,7 C 76 % 1029 hPa 0,0 l/m W-NW 1,2 km/h (1 Bft)
09.06.2005 03:00 5,9 C 81 % 1029 hPa 0,0 l/m NW 4,9 km/h (1 Bft)
09.06.2005 04:00 5,3 C 84 % 1029 hPa 0,0 l/m NW 4,7 km/h (1 Bft)
09.06.2005 05:00 4,6 C 87 % 1028 hPa 0,0 l/m W-NW 5,2 km/h (1 Bft)
09.06.2005 06:00 4,6 C 89 % 1028 hPa 0,0 l/m W 4,2 km/h (1 Bft)
09.06.2005 07:00 5,5 C 88 % 1028 hPa 0,0 l/m NW 4,3 km/h (1 Bft)
09.06.2005 08:00 8,3 C 75 % 1028 hPa 0,0 l/m N 11,7 km/h (2 Bft)
09.06.2005 09:00 10,5 C 58 % 1028 hPa 0,0 l/m N-NO 15,9 km/h (3 Bft)
09.06.2005 10:00 12,8 C 49 % 1028 hPa 0,0 l/m N 16,5 km/h (3 Bft)
09.06.2005 11:00 13,9 C 44 % 1028 hPa 0,0 l/m N-NO 15,8 km/h (3 Bft)
09.06.2005 12:00 14,0 C 41 % 1027 hPa 0,0 l/m N 18,3 km/h (3 Bft)
09.06.2005 13:00 14,7 C 38 % 1027 hPa 0,0 l/m NO 17,8 km/h (3 Bft)
09.06.2005 14:00 15,3 C 35 % 1027 hPa 0,0 l/m NO 21,1 km/h (4 Bft)
09.06.2005 15:00 14,7 C 36 % 1027 hPa 0,0 l/m NO 19,1 km/h (3 Bft)
09.06.2005 16:00 15,2 C 37 % 1026 hPa 0,0 l/m NO 18,3 km/h (3 Bft)
09.06.2005 17:00 13,8 C 39 % 1026 hPa 0,0 l/m O 18,5 km/h (3 Bft)
09.06.2005 18:00 14,8 C 38 % 1025 hPa 0,0 l/m NO 14,1 km/h (3 Bft)
09.06.2005 19:00 13,5 C 41 % 1025 hPa 0,0 l/m O-NO 9,0 km/h (2 Bft)
09.06.2005 20:00 12,8 C 44 % 1025 hPa 0,0 l/m O-NO 6,1 km/h (2 Bft)
09.06.2005 21:00 10,8 C 53 % 1025 hPa 0,0 l/m N 0,0 km/h (0 Bft)
09.06.2005 22:00 8,5 C 63 % 1025 hPa 0,0 l/m N 0,0 km/h (0 Bft)
09.06.2005 23:00 7,2 C 69 % 1025 hPa 0,0 l/m NW 1,3 km/h (1 Bft)
10.06.2005 00:00 6,3 C 73 % 1024 hPa 0,0 l/m N 0,0 km/h (0 Bft)
10.06.2005 01:00 5,4 C 78 % 1024 hPa 0,0 l/m N 0,0 km/h (0 Bft)
10.06.2005 02:00 4,4 C 81 % 1023 hPa 0,0 l/m N 0,0 km/h (0 Bft)
10.06.2005 03:00 3,8 C 84 % 1023 hPa 0,0 l/m N 0,0 km/h (0 Bft)
10.06.2005 04:00 3,2 C 87 % 1022 hPa 0,0 l/m N 0,0 km/h (0 Bft)
10.06.2005 05:00 2,9 C 88 % 1022 hPa 0,0 l/m N 0,0 km/h (0 Bft)
10.06.2005 06:00 3,7 C 90 % 1022 hPa 0,0 l/m N 0,3 km/h (0 Bft)
10.06.2005 07:00 5,5 C 84 % 1022 hPa 0,0 l/m NW 4,0 km/h (1 Bft)
10.06.2005 08:00 8,5 C 70 % 1022 hPa 0,0 l/m N-NO 2,9 km/h (1 Bft)
10.06.2005 09:00 11,9 C 57 % 1022 hPa 0,0 l/m N-NO 9,5 km/h (2 Bft)
10.06.2005 10:00 15,0 C 43 % 1022 hPa 0,0 l/m O-NO 12,5 km/h (3 Bft)
10.06.2005 11:00 16,1 C 39 % 1021 hPa 0,0 l/m N 11,3 km/h (2 Bft)
10.06.2005 12:00 17,1 C 36 % 1021 hPa 0,0 l/m O 10,7 km/h (2 Bft)
10.06.2005 13:00 17,2 C 34 % 1021 hPa 0,0 l/m W 10,6 km/h (2 Bft)
10.06.2005 14:00 17,5 C 34 % 1020 hPa 0,0 l/m N-NO 9,2 km/h (2 Bft)
10.06.2005 15:00 17,9 C 33 % 1020 hPa 0,0 l/m N-NO 11,1 km/h (2 Bft)
10.06.2005 16:00 17,6 C 34 % 1019 hPa 0,0 l/m N-NW 4,4 km/h (1 Bft)
10.06.2005 17:00 16,8 C 36 % 1019 hPa 0,0 l/m W 5,1 km/h (1 Bft)
10.06.2005 18:00 16,6 C 37 % 1019 hPa 0,0 l/m N-NW 6,0 km/h (2 Bft)
10.06.2005 19:00 15,9 C 38 % 1018 hPa 0,0 l/m N-NW 0,9 km/h (0 Bft)
10.06.2005 20:00 15,0 C 46 % 1018 hPa 0,0 l/m N 0,0 km/h (0 Bft)
10.06.2005 21:00 13,8 C 51 % 1018 hPa 0,0 l/m N 0,0 km/h (0 Bft)
10.06.2005 22:00 12,9 C 55 % 1018 hPa 0,0 l/m N 0,0 km/h (0 Bft)
10.06.2005 23:00 12,1 C 59 % 1017 hPa 0,0 l/m S-SW 0,5 km/h (0 Bft)
11.06.2005 00:00 11,2 C 68 % 1017 hPa 0,0 l/m S-SW 0,8 km/h (0 Bft)
11.06.2005 01:00 10,6 C 70 % 1017 hPa 0,0 l/m N 0,0 km/h (0 Bft)
11.06.2005 02:00 9,2 C 72 % 1016 hPa 0,0 l/m N 0,0 km/h (0 Bft)
11.06.2005 03:00 8,6 C 75 % 1016 hPa 0,0 l/m N 0,0 km/h (0 Bft)
11.06.2005 04:00 8,4 C 78 % 1015 hPa 0,0 l/m N 0,0 km/h (0 Bft)
11.06.2005 05:00 8,0 C 83 % 1015 hPa 0,0 l/m N 0,0 km/h (0 Bft)
11.06.2005 06:00 8,2 C 86 % 1015 hPa 0,0 l/m S 1,4 km/h (1 Bft)
11.06.2005 07:00 9,1 C 79 % 1015 hPa 0,0 l/m S 5,6 km/h (1 Bft)
11.06.2005 08:00 10,5 C 73 % 1015 hPa 0,0 l/m S 8,7 km/h (2 Bft)
11.06.2005 09:00 12,5 C 69 % 1015 hPa 0,0 l/m S-SO 7,7 km/h (2 Bft)
11.06.2005 10:00 15,8 C 54 % 1014 hPa 0,0 l/m S 11,5 km/h (2 Bft)
11.06.2005 11:00 17,0 C 46 % 1014 hPa 0,0 l/m S-SW 12,5 km/h (3 Bft)
11.06.2005 12:00 15,7 C 47 % 1013 hPa 0,0 l/m W 7,0 km/h (2 Bft)
11.06.2005 13:00 16,4 C 45 % 1013 hPa 0,0 l/m W 8,8 km/h (2 Bft)
11.06.2005 14:00 17,7 C 40 % 1013 hPa 0,0 l/m W 15,5 km/h (3 Bft)
11.06.2005 15:00 19,3 C 38 % 1012 hPa 0,0 l/m W-SW 11,3 km/h (2 Bft)
11.06.2005 16:00 19,2 C 37 % 1012 hPa 0,0 l/m W 11,0 km/h (2 Bft)
11.06.2005 17:00 18,8 C 40 % 1011 hPa 0,0 l/m W 12,7 km/h (3 Bft)
11.06.2005 18:00 17,9 C 47 % 1011 hPa 0,0 l/m N-NO 11,7 km/h (2 Bft)
11.06.2005 19:00 16,3 C 57 % 1011 hPa 0,0 l/m N-NO 12,8 km/h (3 Bft)
11.06.2005 20:00 14,9 C 64 % 1011 hPa 0,0 l/m N 12,2 km/h (3 Bft)
11.06.2005 21:00 13,5 C 69 % 1012 hPa 0,0 l/m N 11,8 km/h (2 Bft)
11.06.2005 22:00 12,7 C 74 % 1012 hPa 0,0 l/m N 8,4 km/h (2 Bft)
11.06.2005 23:00 12,2 C 76 % 1012 hPa 0,0 l/m N 12,6 km/h (3 Bft)
12.06.2005 00:00 11,3 C 76 % 1012 hPa 0,0 l/m N-NW 10,0 km/h (2 Bft)
12.06.2005 01:00 10,9 C 77 % 1012 hPa 0,0 l/m N-NW 8,7 km/h (2 Bft)
12.06.2005 02:00 10,7 C 79 % 1012 hPa 0,0 l/m N 4,7 km/h (1 Bft)
12.06.2005 03:00 10,5 C 78 % 1012 hPa 0,0 l/m N 6,4 km/h (2 Bft)
12.06.2005 04:00 10,2 C 77 % 1012 hPa 0,0 l/m N-NO 6,3 km/h (2 Bft)
12.06.2005 05:00 9,8 C 80 % 1011 hPa 0,0 l/m N-NO 1,9 km/h (1 Bft)
12.06.2005 06:00 9,8 C 83 % 1011 hPa 0,0 l/m N 3,4 km/h (1 Bft)
12.06.2005 07:00 10,4 C 84 % 1011 hPa 0,0 l/m N-NO 5,7 km/h (1 Bft)
12.06.2005 08:00 11,3 C 71 % 1011 hPa 0,0 l/m O-NO 9,2 km/h (2 Bft)
12.06.2005 09:00 12,2 C 64 % 1011 hPa 0,0 l/m NO 8,3 km/h (2 Bft)
12.06.2005 10:00 13,4 C 62 % 1011 hPa 0,0 l/m NO 5,5 km/h (1 Bft)
12.06.2005 11:00 14,8 C 58 % 1011 hPa 0,0 l/m S 5,4 km/h (1 Bft)
12.06.2005 12:00 16,1 C 58 % 1011 hPa 0,0 l/m S 10,8 km/h (2 Bft)
12.06.2005 13:00 17,6 C 55 % 1011 hPa 0,0 l/m S-SW 11,4 km/h (2 Bft)
12.06.2005 14:00 17,9 C 57 % 1010 hPa 0,0 l/m S 11,8 km/h (2 Bft)
12.06.2005 15:00 17,8 C 59 % 1010 hPa 0,0 l/m NW 7,9 km/h (2 Bft)
12.06.2005 16:00 19,9 C 51 % 1010 hPa 0,0 l/m S-SW 13,4 km/h (3 Bft)
12.06.2005 17:00 20,3 C 50 % 1010 hPa 0,0 l/m S-SW 11,2 km/h (2 Bft)
12.06.2005 18:00 19,9 C 49 % 1009 hPa 0,0 l/m W 7,7 km/h (2 Bft)
12.06.2005 19:00 19,4 C 53 % 1009 hPa 0,0 l/m W 1,7 km/h (1 Bft)
12.06.2005 20:00 18,2 C 63 % 1009 hPa 0,0 l/m N 0,0 km/h (0 Bft)
12.06.2005 21:00 16,4 C 69 % 1009 hPa 0,0 l/m N 0,0 km/h (0 Bft)
12.06.2005 22:00 14,8 C 71 % 1009 hPa 0,0 l/m N 0,0 km/h (0 Bft)
12.06.2005 23:00 13,8 C 75 % 1009 hPa 0,0 l/m N 0,0 km/h (0 Bft)
Min-Datum _ 08.06.05 10.06.05 12.06.05 - - 06.06.05
_ Min-Zeit 05:29 13:08 16:59 - - 00:11
Minimum _ 2,8 C 30 % 1009 hPa - - 0,0 km/h (0 Bft)
Max-Datum _ 12.06.05 07.06.05 07.06.05 06.06.05 - 07.06.05
_ Max-Zeit 17:43 00:32 22:43 19:47 - 18:00
Maximum _ 20,9 C 97 % 1032 hPa 1,0 l/m - 37,8 km/h
N (5 Bft)
Durchschnitt _ 11,9 C 64 % 1022 hPa #2,0 l/m N 7,5 km/h (2 Bft)

Durchschnitt Minimum Temp.11,4 C
Durchschnitt Maximum Temp.12,5 C